createdAt,value
2022-10-14T00:04:10.655Z,77.39
2022-10-14T00:09:16.043Z,77.64
2022-10-14T00:14:23.474Z,77.97
2022-10-14T00:19:30.611Z,78.27
2022-10-14T00:24:35.983Z,78.41
2022-10-14T00:29:41.515Z,78.45
2022-10-14T00:34:47.137Z,78.15
2022-10-14T00:39:56.904Z,78.31
2022-10-14T00:45:07.294Z,78.19
2022-10-14T00:50:16.062Z,78.31
2022-10-14T00:55:21.697Z,77.48
2022-10-14T01:00:27.448Z,77.67
2022-10-14T01:05:35.903Z,78.11
2022-10-14T01:10:53.502Z,78.02
2022-10-14T01:16:20.225Z,78.23
2022-10-14T01:21:45.659Z,78.11
2022-10-14T01:27:01.487Z,78.18
2022-10-14T01:32:15.789Z,78.01
2022-10-14T01:37:24.404Z,77.99
2022-10-14T01:42:34.509Z,77.84
2022-10-14T01:47:42.544Z,77.71
2022-10-14T01:52:59.028Z,77.56
2022-10-14T01:58:07.276Z,76.16
2022-10-14T02:03:15.955Z,76.25
2022-10-14T02:08:39.533Z,76.27
2022-10-14T02:14:00.088Z,75.77
2022-10-14T02:19:26.500Z,75.39
2022-10-14T02:24:35.089Z,75.97
2022-10-14T02:29:43.838Z,76.56
2022-10-14T02:34:53.167Z,76.78
2022-10-14T02:40:03.384Z,76.85
2022-10-14T02:45:11.801Z,77.04
2022-10-14T02:50:19.235Z,77.03
2022-10-14T02:55:24.835Z,77.11
2022-10-14T03:00:30.365Z,77.10
2022-10-14T03:05:36.470Z,77.05
2022-10-14T03:10:42.808Z,76.97
2022-10-14T03:15:50.646Z,76.97
2022-10-14T03:20:57.037Z,76.29
2022-10-14T03:26:04.285Z,75.63
2022-10-14T03:31:11.706Z,75.44
2022-10-14T03:36:18.959Z,75.28
2022-10-14T03:41:26.500Z,76.21
2022-10-14T03:46:32.924Z,76.19
2022-10-14T03:51:38.955Z,76.39
2022-10-14T03:56:46.802Z,76.13
2022-10-14T04:01:53.639Z,76.17
2022-10-14T04:07:02.871Z,76.37
2022-10-14T04:12:09.203Z,76.93
2022-10-14T04:17:22.429Z,77.67
2022-10-14T04:22:30.115Z,77.88
2022-10-14T04:27:37.118Z,78.15
2022-10-14T04:32:44.360Z,78.22
2022-10-14T04:37:50.201Z,78.32
2022-10-14T04:43:03.409Z,78.30
2022-10-14T04:48:10.566Z,77.73
2022-10-14T04:53:21.924Z,76.21
2022-10-14T04:58:26.561Z,76.95
2022-10-14T05:03:32.464Z,77.10
2022-10-14T05:08:39.036Z,76.95
2022-10-14T05:13:46.342Z,76.31
2022-10-14T05:18:53.943Z,76.14
2022-10-14T05:24:00.988Z,73.51
2022-10-14T05:29:08.214Z,74.68
2022-10-14T05:34:15.446Z,75.14
2022-10-14T05:39:21.080Z,75.61
2022-10-14T05:44:26.806Z,75.65
2022-10-14T05:49:32.443Z,75.86
2022-10-14T05:54:39.199Z,76.38
2022-10-14T05:59:45.932Z,76.26
2022-10-14T06:04:52.998Z,76.57
2022-10-14T06:09:58.663Z,76.70
2022-10-14T06:15:04.770Z,77.11
2022-10-14T06:20:11.461Z,76.84
2022-10-14T06:25:17.160Z,77.42
2022-10-14T06:30:22.786Z,77.46
2022-10-14T06:35:28.741Z,77.94
2022-10-14T06:40:34.234Z,77.37
2022-10-14T06:45:39.871Z,78.17
2022-10-14T06:50:45.697Z,78.69
2022-10-14T06:55:53.333Z,78.85
2022-10-14T07:01:11.666Z,78.71
2022-10-14T07:06:17.319Z,78.40
2022-10-14T07:11:22.850Z,78.11
2022-10-14T07:16:28.802Z,78.23
2022-10-14T07:21:35.503Z,77.82
2022-10-14T07:26:41.166Z,77.38
2022-10-14T07:31:46.813Z,77.21
2022-10-14T07:36:52.287Z,77.08
2022-10-14T07:41:57.833Z,76.71
2022-10-14T07:47:03.426Z,76.62
2022-10-14T07:52:09.414Z,76.24
2022-10-14T07:57:15.207Z,76.15
2022-10-14T08:02:21.212Z,75.73
2022-10-14T08:07:27.108Z,75.70
2022-10-14T08:12:32.571Z,74.85
2022-10-14T08:17:38.731Z,74.20
2022-10-14T08:22:44.128Z,73.74
2022-10-14T08:27:52.606Z,74.01
2022-10-14T08:33:00.189Z,73.32
2022-10-14T08:38:05.592Z,73.36
2022-10-14T08:43:28.846Z,73.68
2022-10-14T08:48:35.844Z,72.84
2022-10-14T08:53:47.165Z,72.88
2022-10-14T08:58:54.582Z,73.11
2022-10-14T09:04:11.787Z,72.69
2022-10-14T09:09:35.664Z,72.09
2022-10-14T09:14:47.781Z,71.55
2022-10-14T09:20:05.367Z,70.94
2022-10-14T09:25:18.903Z,70.49
2022-10-14T09:30:24.375Z,70.12
2022-10-14T09:35:32.881Z,69.74
2022-10-14T09:40:43.980Z,69.43
2022-10-14T09:46:01.192Z,68.65
2022-10-14T09:51:12.468Z,68.84
2022-10-14T09:56:21.256Z,68.96
2022-10-14T10:01:29.698Z,68.91
2022-10-14T10:06:38.132Z,68.06
2022-10-14T10:11:43.919Z,67.44
2022-10-14T10:21:58.337Z,66.69
2022-10-14T10:27:08.407Z,66.67
2022-10-14T10:32:20.104Z,65.36
2022-10-14T10:37:32.072Z,65.71
2022-10-14T10:42:46.131Z,65.76
2022-10-14T10:47:54.577Z,65.33
2022-10-14T10:53:13.931Z,65.51
2022-10-14T10:58:35.639Z,64.84
2022-10-14T11:03:49.934Z,64.33
2022-10-14T11:09:19.083Z,62.84
2022-10-14T11:14:48.757Z,62.87
2022-10-14T11:20:02.971Z,61.88
2022-10-14T11:25:23.845Z,62.97
2022-10-14T11:30:34.917Z,62.51
2022-10-14T11:35:46.085Z,62.00
2022-10-14T11:41:03.540Z,61.60
2022-10-14T11:46:15.444Z,61.29
2022-10-14T11:51:36.104Z,60.78
2022-10-14T11:56:47.705Z,61.43
2022-10-14T12:01:56.200Z,61.31
2022-10-14T12:07:07.328Z,61.18
2022-10-14T12:12:15.770Z,59.12
2022-10-14T12:17:24.709Z,59.45
2022-10-14T12:22:32.395Z,59.80
2022-10-14T12:27:39.527Z,60.12
2022-10-14T12:33:06.057Z,59.74
2022-10-14T12:38:13.525Z,59.69
2022-10-14T12:43:29.912Z,59.55
2022-10-14T12:48:37.231Z,59.55
2022-10-14T12:53:51.737Z,59.31
2022-10-14T12:59:02.216Z,59.08
2022-10-14T13:04:14.998Z,59.02
2022-10-14T13:09:33.741Z,59.30
2022-10-14T13:15:00.181Z,58.47
2022-10-14T13:20:07.361Z,58.63
2022-10-14T13:25:19.084Z,58.09
2022-10-14T13:30:34.163Z,58.49
2022-10-14T13:35:52.101Z,58.68
2022-10-14T13:40:59.337Z,58.00
2022-10-14T13:46:09.686Z,58.42
2022-10-14T13:51:31.803Z,58.26
2022-10-14T13:56:32.097Z,58.41
2022-10-14T14:01:39.979Z,58.43
2022-10-14T14:07:02.993Z,58.43
2022-10-14T14:11:56.819Z,58.40
2022-10-14T14:17:05.339Z,58.58
2022-10-14T14:22:16.836Z,58.57
2022-10-14T14:27:26.796Z,58.79
2022-10-14T14:32:33.890Z,58.91
2022-10-14T14:37:55.284Z,59.26
2022-10-14T14:42:55.129Z,59.47
2022-10-14T14:48:06.098Z,59.62
2022-10-14T14:53:25.246Z,59.65
2022-10-14T14:58:52.919Z,59.77
2022-10-14T15:04:11.969Z,59.84
2022-10-14T15:09:14.163Z,59.80
2022-10-14T15:14:35.698Z,59.74
2022-10-14T15:19:41.469Z,59.77
2022-10-14T15:25:01.404Z,59.88
2022-10-14T15:30:38.274Z,60.22
2022-10-14T15:35:45.302Z,60.05
2022-10-14T15:40:51.592Z,60.13
2022-10-14T15:46:18.483Z,60.01
2022-10-14T15:51:25.218Z,59.97
2022-10-14T15:56:32.066Z,59.92
2022-10-14T16:01:41.229Z,60.10
2022-10-14T16:06:47.389Z,60.25
2022-10-14T16:11:54.504Z,60.62
2022-10-14T16:17:02.743Z,60.92
2022-10-14T16:22:08.202Z,61.29
2022-10-14T16:27:15.682Z,61.73
2022-10-14T16:32:21.327Z,62.04
2022-10-14T16:37:27.536Z,62.36
2022-10-14T16:42:33.070Z,62.66
2022-10-14T16:47:39.146Z,62.77
2022-10-14T16:53:05.989Z,63.44
2022-10-14T16:58:12.656Z,63.96
2022-10-14T17:03:18.359Z,64.37
2022-10-14T17:08:24.709Z,64.91
2022-10-14T17:13:31.860Z,65.32
2022-10-14T17:18:37.887Z,65.64
2022-10-14T17:23:45.597Z,66.00
2022-10-14T17:28:51.951Z,66.23
2022-10-14T17:33:57.854Z,66.50
2022-10-14T17:39:03.447Z,66.77
2022-10-14T17:44:09.667Z,67.02
2022-10-14T17:49:16.110Z,67.23
2022-10-14T17:54:21.827Z,67.47
2022-10-14T17:59:27.533Z,67.74
2022-10-14T18:04:33.300Z,68.10
2022-10-14T18:09:38.773Z,68.16
2022-10-14T18:14:44.627Z,68.20
2022-10-14T18:19:52.391Z,66.69
2022-10-14T18:24:57.448Z,67.75
2022-10-14T18:30:03.012Z,68.06
2022-10-14T18:35:09.039Z,68.33
2022-10-14T18:40:16.259Z,68.48
2022-10-14T18:45:21.797Z,68.73
2022-10-14T18:50:27.330Z,69.00
2022-10-14T18:55:32.724Z,69.30
2022-10-14T19:00:39.322Z,69.54
2022-10-14T19:05:44.939Z,69.71
2022-10-14T19:10:51.213Z,69.81
2022-10-14T19:16:04.775Z,69.96
2022-10-14T19:21:14.537Z,70.02
2022-10-14T19:26:22.989Z,70.26
2022-10-14T19:31:30.810Z,70.40
2022-10-14T19:36:38.936Z,70.48
2022-10-14T19:41:46.674Z,70.59
2022-10-14T19:46:52.265Z,70.73
2022-10-14T19:51:57.773Z,70.87
2022-10-14T19:57:03.489Z,70.99
2022-10-14T20:02:10.924Z,71.24
2022-10-14T20:07:16.609Z,71.45
2022-10-14T20:12:22.813Z,71.57
2022-10-14T20:17:28.750Z,71.81
2022-10-14T20:22:34.436Z,71.83
2022-10-14T20:27:40.139Z,71.69
2022-10-14T20:32:45.750Z,71.84
2022-10-14T20:37:52.423Z,71.99
2022-10-14T20:42:58.635Z,72.12
2022-10-14T20:48:04.280Z,72.25
2022-10-14T20:53:09.889Z,72.41
2022-10-14T20:58:15.423Z,70.51
2022-10-14T21:03:20.895Z,71.76
2022-10-14T21:08:26.421Z,72.25
2022-10-14T21:13:32.433Z,72.66
2022-10-14T21:18:37.889Z,72.73
2022-10-14T21:23:43.360Z,72.98
2022-10-14T21:28:49.220Z,73.07
2022-10-14T21:34:05.041Z,73.17
2022-10-14T21:39:11.374Z,73.12
2022-10-14T21:44:19.858Z,73.30
2022-10-14T21:49:25.398Z,73.38
2022-10-14T21:54:30.925Z,73.41
2022-10-14T21:59:36.393Z,73.48
2022-10-14T22:04:41.871Z,73.64
2022-10-14T22:09:47.329Z,73.70
2022-10-14T22:14:52.926Z,73.87
2022-10-14T22:19:59.319Z,74.15
2022-10-14T22:25:05.209Z,74.08
2022-10-14T22:30:11.792Z,74.12
2022-10-14T22:35:17.448Z,74.26
2022-10-14T22:40:22.905Z,74.17
2022-10-14T22:45:28.386Z,74.34
2022-10-14T22:50:36.250Z,74.54
2022-10-14T22:55:41.734Z,74.70
2022-10-14T23:00:47.481Z,74.59
2022-10-14T23:05:52.946Z,74.86
2022-10-14T23:11:00.539Z,74.63
2022-10-14T23:16:08.419Z,74.87
2022-10-14T23:21:16.790Z,74.80
2022-10-14T23:26:24.751Z,74.86
2022-10-14T23:31:33.251Z,74.69
2022-10-14T23:36:38.920Z,74.89
2022-10-14T23:41:44.926Z,74.83
2022-10-14T23:46:50.548Z,74.97
2022-10-14T23:51:56.937Z,74.89
2022-10-14T23:57:02.405Z,74.89
